INFORMACIÓN METAR y TAF
METAR FOR LEAB
ADDS - METARS form results

(0912 UTC 01 October 2022)
Data provider http://aviationweather.gov/metar/data/
 
METAR text: LEAB 010900Z VRB01KT CAVOK 13/06 Q1027 NOSIG
Conditions at: LEAB (ALBACETE (CIV/MI, ES) observed 0900 UTC 01 October 2022
Temperature: 13.0°C (55°F)
Dewpoint: 6.0°C (43°F) [RH = 62%]
Pressure (altimeter): 30.32 inches Hg (1027.0 mb)
Winds: variable direction winds at 1 MPH (1 knots; 0.5 m/s)
Visibility: 6 or more miles (10+ km)
Ceiling: ceiling and visibility are OK
Clouds: unknown
Weather: no significant weather observed at this time

METAR text: LEAB 010830Z 00000KT CAVOK 13/05 Q1027 NOSIG
Conditions at: LEAB (ALBACETE (CIV/MI, ES) observed 0830 UTC 01 October 2022
Temperature: 13.0°C (55°F)
Dewpoint: 5.0°C (41°F) [RH = 58%]
Pressure (altimeter): 30.32 inches Hg (1027.0 mb)
Winds: calm
Visibility: 6 or more miles (10+ km)
Ceiling: ceiling and visibility are OK
Clouds: unknown
Weather: no significant weather observed at this time

Forecast for: AMD
Text: TAF AMD LEAB 010704Z 0107/0206 VRB03KT CAVOK TX23/0115Z TN07/0206Z
Forecast period: 0700 UTC 01 October 2022 to 0600 UTC 02 October 2022
Forecast type: FROM: standard forecast or significant change
Winds: variable direction winds at 3 MPH (3 knots; 1.5 m/s)
Visibility: 6 or more miles (10+ km)
Ceiling: unknown
Clouds: missing
Weather: no significant weather forecast for this period
Text: PROB30
Forecast period: 0300 to 0600 UTC 02 October 2022
Forecast type: TEMPORARY: The following changes expected for less than half the time period
Visibility: 1.86 miles (2.99 km)
Ceiling: 600 feet AGL
Clouds: broken clouds at 600 feet AGL
Weather: BR  (mist)

 MAPA DE AEROPUERTO

 INFORMACIÓN DE PISTA
Pista 09 Longitud 8858 ft Ancho 197 ft
Elevación 2281 ft Umbral desplazado 0 ft Rumbo de pista 87
Pista 27 Longitud 8858 ft Ancho 197 ft
Elevación 2302 ft Umbral desplazado 0 ft Rumbo de pista 267

 FRECUANCIAS DEL AEROPUERTO
Tipo APP Nombre APP Frecuencia 118.725 MHZ
Tipo GND Nombre GND Frecuencia 121.8 MHZ
Tipo TWR Nombre TWR Frecuencia 122.1 MHZ

 RADIO AYUDAS DEL AEROPUERTO
Tipo NDB Nombre Albacete Frecuencia 321 KHZ
Tipo TACAN Nombre Albacete Frecuencia 108000 KHZ
Tipo VOR-DME Nombre Albacete Frecuencia 115800 KHZ




Powered by Virtual Airlines Manager